Equality — ODTX — position and weather

sailwx.info

Track history (hours):
 
Tides and Currents Weather Stations Pressure Air Temp Water Temp Dewpoint Dewpoint Depression Visibility Wind Speed Wind Dir Waves Ship Positions

Equality

Last reported at 2017-Mar-29 19:08 UTC. Time now 2017-Mar-30 14:54 UTC.
Position N 34°34' E 031°50'.

Length 124 m; draft 4.3 m.

Type: Cargo ship. MMSI: 450501000.

Date/timePositionNaut miles runAvg speedWind from/ knotsBaromVisibWave heightAir tempDewpointWater temp
2017-Mar-29 19:08N 34°34' E 031°50'610.6
2017-Mar-29 18:32N 34°33' E 031°58'1010.5
2017-Mar-29 17:33N 34°33' E 032°10'1010.1
2017-Mar-29 16:33N 34°33' E 032°22'14 9.9
2017-Mar-29 15:06N 34°32' E 032°40'5 9.6
2017-Mar-29 14:33N 34°32' E 032°46'1010.2
2017-Mar-29 13:33N 34°32' E 032°59'8 7.7
2017-Mar-29 12:33N 34°37' E 033°05'3 1.6
2017-Mar-29 10:26N 34°41' E 033°04'0 0.0
2017-Mar-29 09:24N 34°41' E 033°05'0 0.0
2017-Mar-29 08:33N 34°41' E 033°05'0 0.3
2017-Mar-29 07:33N 34°40' E 033°05'7 6.6
2017-Mar-29 06:33N 34°35' E 033°10'7 3.7
2017-Mar-29 04:31N 34°31' E 033°17'1 0.8
2017-Mar-29 03:32N 34°31' E 033°18'1 0.7
2017-Mar-29 02:18N 34°31' E 033°19'1 0.5
2017-Mar-29 01:07N 34°32' E 033°19'2 3.4
2017-Mar-29 00:33N 34°34' E 033°19'  
Track history (hours):
 
Tides and Currents Weather Stations Pressure Air Temp Water Temp Dewpoint Dewpoint Depression Visibility Wind Speed Wind Dir Waves Ship Positions

Equality

Last reported at 2017-Mar-29 19:08 UTC. Time now 2017-Mar-30 14:54 UTC.
Position N 34°34' E 031°50'.

Length 124 m; draft 4.3 m.

Type: Cargo ship. MMSI: 450501000.

Date/timePositionNaut miles runAvg speedWind from/ knotsBaromVisibWave heightAir tempDewpointWater temp
2017-Mar-29 19:08N 34°34' E 031°50'610.6
2017-Mar-29 18:32N 34°33' E 031°58'1010.5
2017-Mar-29 17:33N 34°33' E 032°10'1010.1
2017-Mar-29 16:33N 34°33' E 032°22'14 9.9
2017-Mar-29 15:06N 34°32' E 032°40'5 9.6
2017-Mar-29 14:33N 34°32' E 032°46'1010.2
2017-Mar-29 13:33N 34°32' E 032°59'8 7.7
2017-Mar-29 12:33N 34°37' E 033°05'3 1.6
2017-Mar-29 10:26N 34°41' E 033°04'0 0.0
2017-Mar-29 09:24N 34°41' E 033°05'0 0.0
2017-Mar-29 08:33N 34°41' E 033°05'0 0.3
2017-Mar-29 07:33N 34°40' E 033°05'7 6.6
2017-Mar-29 06:33N 34°35' E 033°10'7 3.7
2017-Mar-29 04:31N 34°31' E 033°17'1 0.8
2017-Mar-29 03:32N 34°31' E 033°18'1 0.7
2017-Mar-29 02:18N 34°31' E 033°19'1 0.5
2017-Mar-29 01:07N 34°32' E 033°19'2 3.4
2017-Mar-29 00:33N 34°34' E 033°19'  

Dump ship's entire track history